createdAt,value
2022-10-13T00:01:12.613Z,10.13
2022-10-13T00:04:14.994Z,10.17
2022-10-13T00:07:17.041Z,10.15
2022-10-13T00:10:19.398Z,10.19
2022-10-13T00:13:21.461Z,10.24
2022-10-13T00:16:24.624Z,10.19
2022-10-13T00:19:27.748Z,10.14
2022-10-13T00:22:30.178Z,10.16
2022-10-13T00:25:32.255Z,10.12
2022-10-13T00:28:35.177Z,10.13
2022-10-13T00:31:37.292Z,10.08
2022-10-13T00:34:39.848Z,10.03
2022-10-13T00:37:41.950Z,9.97
2022-10-13T00:40:56.151Z,9.98
2022-10-13T00:44:04.988Z,9.85
2022-10-13T00:47:07.428Z,9.85
2022-10-13T00:50:14.721Z,9.83
2022-10-13T00:53:20.027Z,9.73
2022-10-13T00:56:24.379Z,9.77
2022-10-13T00:59:29.168Z,9.74
2022-10-13T01:02:34.774Z,9.80
2022-10-13T01:05:39.428Z,9.80
2022-10-13T01:08:41.604Z,9.67
2022-10-13T01:12:01.120Z,9.72
2022-10-13T01:15:22.783Z,9.72
2022-10-13T01:18:38.738Z,9.72
2022-10-13T01:21:48.959Z,9.73
2022-10-13T01:25:18.612Z,9.64
2022-10-13T01:28:35.527Z,9.56
2022-10-13T01:31:42.123Z,9.58
2022-10-13T01:34:50.502Z,9.65
2022-10-13T01:38:09.310Z,9.65
2022-10-13T01:41:25.958Z,9.61
2022-10-13T01:44:41.034Z,9.67
2022-10-13T01:47:44.104Z,9.64
2022-10-13T01:50:47.695Z,9.64
2022-10-13T01:53:50.274Z,9.58
2022-10-13T01:56:56.397Z,9.61
2022-10-13T02:00:01.818Z,9.53
2022-10-13T02:03:45.956Z,9.51
2022-10-13T02:06:57.796Z,9.44
2022-10-13T02:10:11.818Z,9.43
2022-10-13T02:13:17.614Z,9.37
2022-10-13T02:16:23.453Z,9.37
2022-10-13T02:19:27.627Z,9.32
2022-10-13T02:22:37.212Z,9.39
2022-10-13T02:25:40.315Z,9.35
2022-10-13T02:28:42.584Z,9.31
2022-10-13T02:31:46.443Z,9.32
2022-10-13T02:34:49.152Z,9.24
2022-10-13T02:37:51.488Z,9.18
2022-10-13T02:40:54.815Z,9.21
2022-10-13T02:43:57.466Z,9.21
2022-10-13T02:47:00.851Z,9.21
2022-10-13T02:50:03.854Z,9.21
2022-10-13T02:53:05.974Z,9.23
2022-10-13T02:56:08.345Z,9.22
2022-10-13T02:59:12.326Z,9.27
2022-10-13T03:02:14.788Z,9.22
2022-10-13T03:05:17.226Z,9.26
2022-10-13T03:08:19.562Z,9.22
2022-10-13T03:11:22.215Z,9.15
2022-10-13T03:14:24.631Z,9.05
2022-10-13T03:17:27.153Z,9.07
2022-10-13T03:20:29.513Z,9.08
2022-10-13T03:23:31.761Z,9.13
2022-10-13T03:26:35.127Z,9.11
2022-10-13T03:29:37.199Z,9.15
2022-10-13T03:32:40.644Z,9.13
2022-10-13T03:35:42.765Z,9.08
2022-10-13T03:38:45.168Z,9.00
2022-10-13T03:41:47.494Z,9.08
2022-10-13T03:44:55.198Z,9.07
2022-10-13T03:47:58.488Z,9.05
2022-10-13T03:51:05.400Z,9.00
2022-10-13T03:54:07.636Z,9.09
2022-10-13T03:57:09.956Z,9.10
2022-10-13T04:00:12.945Z,9.06
2022-10-13T04:03:15.495Z,9.10
2022-10-13T04:06:17.871Z,9.11
2022-10-13T04:09:19.929Z,9.01
2022-10-13T04:12:22.498Z,9.01
2022-10-13T04:15:24.798Z,9.06
2022-10-13T04:18:27.131Z,9.02
2022-10-13T04:21:31.558Z,9.06
2022-10-13T04:24:34.116Z,8.99
2022-10-13T04:27:39.533Z,8.88
2022-10-13T04:30:45.856Z,8.86
2022-10-13T04:33:51.681Z,8.85
2022-10-13T04:36:56.781Z,8.81
2022-10-13T04:39:58.848Z,8.80
2022-10-13T04:43:01.538Z,8.77
2022-10-13T04:46:07.386Z,8.72
2022-10-13T04:49:09.770Z,8.74
2022-10-13T04:52:13.561Z,8.80
2022-10-13T04:55:15.985Z,8.77
2022-10-13T04:58:18.721Z,8.73
2022-10-13T05:01:23.781Z,8.66
2022-10-13T05:04:25.846Z,8.55
2022-10-13T05:07:28.192Z,8.46
2022-10-13T05:10:34.618Z,8.46
2022-10-13T05:13:37.813Z,8.46
2022-10-13T05:16:39.899Z,8.49
2022-10-13T05:19:42.600Z,8.47
2022-10-13T05:22:44.950Z,8.54
2022-10-13T05:25:47.323Z,8.53
2022-10-13T05:28:50.040Z,8.50
2022-10-13T05:31:52.542Z,8.58
2022-10-13T05:34:54.635Z,8.60
2022-10-13T05:37:57.013Z,8.63
2022-10-13T05:41:17.485Z,8.65
2022-10-13T05:44:19.849Z,8.70
2022-10-13T05:47:28.488Z,8.72
2022-10-13T05:50:32.134Z,8.75
2022-10-13T05:53:38.168Z,8.85
2022-10-13T05:56:47.769Z,8.89
2022-10-13T05:59:57.658Z,8.84
2022-10-13T06:03:07.542Z,8.83
2022-10-13T06:06:10.828Z,8.93
2022-10-13T06:09:13.128Z,8.97
2022-10-13T06:12:16.863Z,8.92
2022-10-13T06:15:19.039Z,9.00
2022-10-13T06:18:21.424Z,9.04
2022-10-13T06:21:24.181Z,9.13
2022-10-13T06:24:26.546Z,9.12
2022-10-13T06:27:29.222Z,9.18
2022-10-13T06:30:32.377Z,9.21
2022-10-13T06:33:34.887Z,9.25
2022-10-13T06:36:37.986Z,9.37
2022-10-13T06:39:40.061Z,9.35
2022-10-13T06:42:42.414Z,9.39
2022-10-13T06:45:44.502Z,9.49
2022-10-13T06:48:51.174Z,9.59
2022-10-13T06:51:53.438Z,9.63
2022-10-13T06:54:55.748Z,9.67
2022-10-13T06:57:58.030Z,9.78
2022-10-13T07:01:00.445Z,9.86
2022-10-13T07:04:02.650Z,9.95
2022-10-13T07:07:04.971Z,10.06
2022-10-13T07:10:07.263Z,10.17
2022-10-13T07:13:09.773Z,10.25
2022-10-13T07:16:11.995Z,10.34
2022-10-13T07:19:14.359Z,10.42
2022-10-13T07:22:16.601Z,10.52
2022-10-13T07:25:19.047Z,10.64
2022-10-13T07:28:21.381Z,10.73
2022-10-13T07:31:25.339Z,10.80
2022-10-13T07:34:27.417Z,10.90
2022-10-13T07:37:29.802Z,11.02
2022-10-13T07:40:32.244Z,11.18
2022-10-13T07:43:35.205Z,11.29
2022-10-13T07:46:39.910Z,11.43
2022-10-13T07:49:42.241Z,11.47
2022-10-13T07:52:44.929Z,11.56
2022-10-13T07:55:47.556Z,11.65
2022-10-13T07:58:49.750Z,11.78
2022-10-13T08:01:52.145Z,11.94
2022-10-13T08:04:54.493Z,12.14
2022-10-13T08:07:58.464Z,12.29
2022-10-13T08:11:03.626Z,12.49
2022-10-13T08:14:06.951Z,12.70
2022-10-13T08:17:09.321Z,12.86
2022-10-13T08:20:11.634Z,13.23
2022-10-13T08:26:24.496Z,13.72
2022-10-13T08:29:26.923Z,13.98
2022-10-13T08:32:29.826Z,14.02
2022-10-13T08:35:34.862Z,14.31
2022-10-13T08:38:37.123Z,14.59
2022-10-13T08:41:44.047Z,14.85
2022-10-13T08:45:28.810Z,15.10
2022-10-13T08:48:21.602Z,15.36
2022-10-13T08:51:23.703Z,15.72
2022-10-13T08:54:26.530Z,15.86
2022-10-13T08:57:28.643Z,16.14
2022-10-13T09:00:31.060Z,16.45
2022-10-13T09:03:49.901Z,16.60
2022-10-13T09:07:17.384Z,16.79
2022-10-13T09:10:20.015Z,16.86
2022-10-13T09:13:22.452Z,17.01
2022-10-13T09:16:32.637Z,17.16
2022-10-13T09:19:36.617Z,16.90
2022-10-13T09:22:41.133Z,17.13
2022-10-13T09:25:49.908Z,16.98
2022-10-13T09:28:52.536Z,16.90
2022-10-13T09:32:23.807Z,16.89
2022-10-13T09:35:26.092Z,16.79
2022-10-13T09:38:29.372Z,16.82
2022-10-13T09:41:32.126Z,16.81
2022-10-13T09:44:34.578Z,16.86
2022-10-13T09:47:36.730Z,16.73
2022-10-13T09:50:49.599Z,16.64
2022-10-13T09:53:52.406Z,16.48
2022-10-13T09:57:16.652Z,16.68
2022-10-13T10:00:24.452Z,16.67
2022-10-13T10:03:34.571Z,16.89
2022-10-13T10:06:38.734Z,17.04
2022-10-13T10:09:46.701Z,16.97
2022-10-13T10:12:49.051Z,17.07
2022-10-13T10:15:57.484Z,17.22
2022-10-13T10:19:12.032Z,17.14
2022-10-13T10:22:36.109Z,17.33
2022-10-13T10:25:44.795Z,17.38
2022-10-13T10:29:17.245Z,17.39
2022-10-13T10:32:34.654Z,17.49
2022-10-13T10:35:49.378Z,17.23
2022-10-13T10:39:00.183Z,17.33
2022-10-13T10:42:07.983Z,17.46
2022-10-13T10:45:21.744Z,17.54
2022-10-13T10:48:25.457Z,17.58
2022-10-13T10:51:36.019Z,17.73
2022-10-13T10:54:52.463Z,17.69
2022-10-13T10:58:07.419Z,17.75
2022-10-13T11:01:25.476Z,17.79
2022-10-13T11:04:40.367Z,17.87
2022-10-13T11:07:43.054Z,17.86
2022-10-13T11:10:45.145Z,17.91
2022-10-13T11:14:02.721Z,18.03
2022-10-13T11:17:07.464Z,18.03
2022-10-13T11:20:21.778Z,18.04
2022-10-13T11:23:32.675Z,18.07
2022-10-13T11:26:42.914Z,18.13
2022-10-13T11:29:54.805Z,18.19
2022-10-13T11:32:57.380Z,18.21
2022-10-13T11:36:39.253Z,18.29
2022-10-13T11:39:59.518Z,18.35
2022-10-13T11:43:23.728Z,18.33
2022-10-13T11:47:00.567Z,18.42
2022-10-13T11:50:22.722Z,18.47
2022-10-13T11:53:32.455Z,18.44
2022-10-13T11:56:48.454Z,18.50
2022-10-13T11:59:55.711Z,18.44
2022-10-13T12:03:01.235Z,18.47
2022-10-13T12:06:22.346Z,18.59
2022-10-13T12:09:25.021Z,18.67
2022-10-13T12:12:27.697Z,18.62
2022-10-13T12:15:43.473Z,18.53
2022-10-13T12:18:45.922Z,18.63
2022-10-13T12:21:53.426Z,18.65
2022-10-13T12:25:00.481Z,18.60
2022-10-13T12:28:02.731Z,18.63
2022-10-13T12:34:45.345Z,18.57
2022-10-13T12:38:13.633Z,18.69
2022-10-13T12:41:24.707Z,18.63
2022-10-13T12:44:37.224Z,18.66
2022-10-13T12:47:59.977Z,18.59
2022-10-13T12:51:15.919Z,18.56
2022-10-13T12:54:31.747Z,18.60
2022-10-13T12:57:45.601Z,18.66
2022-10-13T13:01:18.220Z,18.60
2022-10-13T13:04:23.867Z,18.64
2022-10-13T13:07:37.941Z,18.63
2022-10-13T13:10:54.500Z,18.61
2022-10-13T13:14:34.641Z,18.68
2022-10-13T13:17:58.953Z,18.72
2022-10-13T13:21:12.636Z,18.90
2022-10-13T13:24:28.832Z,18.92
2022-10-13T13:27:41.087Z,18.82
2022-10-13T13:30:48.233Z,18.76
2022-10-13T13:34:00.533Z,18.76
2022-10-13T13:37:05.348Z,18.61
2022-10-13T13:40:15.237Z,18.50
2022-10-13T13:43:17.288Z,18.49
2022-10-13T13:46:23.369Z,18.48
2022-10-13T13:49:25.778Z,18.40
2022-10-13T13:52:28.125Z,18.37
2022-10-13T13:55:30.395Z,18.37
2022-10-13T13:58:32.730Z,18.35
2022-10-13T14:01:35.207Z,18.35
2022-10-13T14:04:37.594Z,18.32
2022-10-13T14:07:40.792Z,18.25
2022-10-13T14:10:43.467Z,18.29
2022-10-13T14:13:47.276Z,18.28
2022-10-13T14:16:51.423Z,18.26
2022-10-13T14:19:53.505Z,18.24
2022-10-13T14:22:55.978Z,18.25
2022-10-13T14:25:58.114Z,18.24
2022-10-13T14:29:00.905Z,18.14
2022-10-13T14:32:03.394Z,18.10
2022-10-13T14:35:06.647Z,18.10
2022-10-13T14:38:08.943Z,18.07
2022-10-13T14:41:12.024Z,18.02
2022-10-13T14:44:14.385Z,17.90
2022-10-13T14:47:20.274Z,17.86
2022-10-13T14:50:22.483Z,17.83
2022-10-13T14:53:33.675Z,17.77
2022-10-13T14:56:36.297Z,17.77
2022-10-13T14:59:38.654Z,17.71
2022-10-13T15:02:40.721Z,17.69
2022-10-13T15:05:43.038Z,17.61
2022-10-13T15:08:45.792Z,17.52
2022-10-13T15:11:48.191Z,17.42
2022-10-13T15:14:50.277Z,17.43
2022-10-13T15:17:52.682Z,17.36
2022-10-13T15:20:54.776Z,17.32
2022-10-13T15:23:57.378Z,17.26
2022-10-13T15:26:59.453Z,17.22
2022-10-13T15:30:04.542Z,17.13
2022-10-13T15:33:06.614Z,17.04
2022-10-13T15:36:08.947Z,16.94
2022-10-13T15:39:14.628Z,16.86
2022-10-13T15:42:16.965Z,16.78
2022-10-13T15:45:19.490Z,16.69
2022-10-13T15:48:22.073Z,16.61
2022-10-13T15:51:26.178Z,16.50
2022-10-13T15:54:28.677Z,16.41
2022-10-13T15:57:31.502Z,16.32
2022-10-13T16:00:33.887Z,16.20
2022-10-13T16:03:36.457Z,16.12
2022-10-13T16:06:38.869Z,16.05
2022-10-13T16:09:41.228Z,15.84
2022-10-13T16:12:49.246Z,15.75
2022-10-13T16:15:59.853Z,15.61
2022-10-13T16:19:01.924Z,15.40
2022-10-13T16:22:04.408Z,15.43
2022-10-13T16:25:07.100Z,15.44
2022-10-13T16:28:09.479Z,15.39
2022-10-13T16:31:14.234Z,15.32
2022-10-13T16:34:17.405Z,15.29
2022-10-13T16:37:20.074Z,15.25
2022-10-13T16:40:22.826Z,15.18
2022-10-13T16:43:24.911Z,14.93
2022-10-13T16:46:28.890Z,14.85
2022-10-13T16:49:31.683Z,14.84
2022-10-13T16:52:34.029Z,14.75
2022-10-13T16:55:39.471Z,14.72
2022-10-13T16:58:45.048Z,14.69
2022-10-13T17:01:48.199Z,14.66
2022-10-13T17:04:50.576Z,14.59
2022-10-13T17:07:52.704Z,14.52
2022-10-13T17:10:58.243Z,14.44
2022-10-13T17:14:01.145Z,14.34
2022-10-13T17:17:06.512Z,14.28
2022-10-13T17:20:09.553Z,14.22
2022-10-13T17:23:13.181Z,14.16
2022-10-13T17:26:17.173Z,14.08
2022-10-13T17:29:19.581Z,13.98
2022-10-13T17:32:22.228Z,13.97
2022-10-13T17:35:24.610Z,13.95
2022-10-13T17:38:26.719Z,13.95
2022-10-13T17:41:29.063Z,13.88
2022-10-13T17:44:31.291Z,13.85
2022-10-13T17:47:34.536Z,13.79
2022-10-13T17:50:37.670Z,13.81
2022-10-13T17:53:42.023Z,13.73
2022-10-13T17:56:47.821Z,13.66
2022-10-13T17:59:50.182Z,13.64
2022-10-13T18:02:52.311Z,13.46
2022-10-13T18:05:54.642Z,13.43
2022-10-13T18:08:56.963Z,13.34
2022-10-13T18:11:59.305Z,13.21
2022-10-13T18:15:01.437Z,13.08
2022-10-13T18:18:04.644Z,13.02
2022-10-13T18:21:08.237Z,12.95
2022-10-13T18:24:11.657Z,12.91
2022-10-13T18:27:13.752Z,12.84
2022-10-13T18:30:21.368Z,12.76
2022-10-13T18:33:24.359Z,12.79
2022-10-13T18:36:29.406Z,12.67
2022-10-13T18:39:34.064Z,12.65
2022-10-13T18:42:36.417Z,12.57
2022-10-13T18:45:38.484Z,12.48
2022-10-13T18:48:41.047Z,12.45
2022-10-13T18:51:43.121Z,12.40
2022-10-13T18:54:46.275Z,12.28
2022-10-13T18:57:48.337Z,12.30
2022-10-13T19:00:50.702Z,12.28
2022-10-13T19:03:53.951Z,12.24
2022-10-13T19:06:56.276Z,12.20
2022-10-13T19:09:58.367Z,12.18
2022-10-13T19:13:00.708Z,12.03
2022-10-13T19:16:04.676Z,11.96
2022-10-13T19:19:09.157Z,11.90
2022-10-13T19:22:11.470Z,11.87
2022-10-13T19:25:13.926Z,11.83
2022-10-13T19:28:16.614Z,11.80
2022-10-13T19:31:23.962Z,11.71
2022-10-13T19:34:26.408Z,11.66
2022-10-13T19:37:28.784Z,11.66
2022-10-13T19:40:30.845Z,11.66
2022-10-13T19:43:33.753Z,11.64
2022-10-13T19:46:38.284Z,11.60
2022-10-13T19:49:40.652Z,11.50
2022-10-13T19:52:43.040Z,11.52
2022-10-13T19:55:47.858Z,11.38
2022-10-13T19:58:51.396Z,11.32
2022-10-13T20:01:55.779Z,11.31
2022-10-13T20:04:58.142Z,11.31
2022-10-13T20:08:00.207Z,11.34
2022-10-13T20:11:07.708Z,11.29
2022-10-13T20:14:09.822Z,11.20
2022-10-13T20:17:14.321Z,11.25
2022-10-13T20:20:20.151Z,11.19
2022-10-13T20:23:25.125Z,11.18
2022-10-13T20:26:27.274Z,11.08
2022-10-13T20:29:29.685Z,11.06
2022-10-13T20:32:31.751Z,11.00
2022-10-13T20:35:34.079Z,11.00
2022-10-13T20:38:36.234Z,10.97
2022-10-13T20:41:38.601Z,10.88
2022-10-13T20:44:40.657Z,10.84
2022-10-13T20:47:42.985Z,10.84
2022-10-13T20:50:45.046Z,10.82
2022-10-13T20:53:48.436Z,10.79
2022-10-13T20:56:50.576Z,10.75
2022-10-13T20:59:52.900Z,10.73
2022-10-13T21:02:58.802Z,10.71
2022-10-13T21:06:06.383Z,10.54
2022-10-13T21:09:09.382Z,10.53
2022-10-13T21:12:12.450Z,10.54
2022-10-13T21:15:14.617Z,10.52
2022-10-13T21:18:16.953Z,10.55
2022-10-13T21:21:24.767Z,10.47
2022-10-13T21:24:27.090Z,10.48
2022-10-13T21:27:29.145Z,10.45
2022-10-13T21:30:32.354Z,10.39
2022-10-13T21:33:35.983Z,10.27
2022-10-13T21:36:42.347Z,10.26
2022-10-13T21:39:47.634Z,10.27
2022-10-13T21:42:50.199Z,10.23
2022-10-13T21:45:52.287Z,10.21
2022-10-13T21:48:57.058Z,10.22
2022-10-13T21:51:59.645Z,10.24
2022-10-13T21:55:02.992Z,10.24
2022-10-13T21:58:05.557Z,10.23
2022-10-13T22:01:08.319Z,10.20
2022-10-13T22:04:13.385Z,10.14
2022-10-13T22:07:15.464Z,10.01
2022-10-13T22:10:17.970Z,10.01
2022-10-13T22:13:20.062Z,10.04
2022-10-13T22:16:29.075Z,10.07
2022-10-13T22:19:31.154Z,9.97
2022-10-13T22:22:33.507Z,9.95
2022-10-13T22:25:35.589Z,9.83
2022-10-13T22:28:38.982Z,9.80
2022-10-13T22:31:41.135Z,9.76
2022-10-13T22:34:44.726Z,9.80
2022-10-13T22:37:46.791Z,9.78
2022-10-13T22:40:49.131Z,9.77
2022-10-13T22:43:53.213Z,9.70
2022-10-13T22:46:55.554Z,9.62
2022-10-13T22:49:57.622Z,9.65
2022-10-13T22:52:59.971Z,9.68
2022-10-13T22:56:08.801Z,9.64
2022-10-13T22:59:13.704Z,9.64
2022-10-13T23:02:15.795Z,9.58
2022-10-13T23:05:18.169Z,9.55
2022-10-13T23:08:20.236Z,9.59
2022-10-13T23:11:22.977Z,9.61
2022-10-13T23:14:25.066Z,9.51
2022-10-13T23:17:27.428Z,9.47
2022-10-13T23:20:30.170Z,9.44
2022-10-13T23:23:33.256Z,9.39
2022-10-13T23:26:36.021Z,9.36
2022-10-13T23:29:38.364Z,9.41
2022-10-13T23:32:40.464Z,9.33
2022-10-13T23:35:42.790Z,9.33
2022-10-13T23:38:45.448Z,9.32
2022-10-13T23:41:47.828Z,9.35
2022-10-13T23:44:51.460Z,9.32
2022-10-13T23:47:53.783Z,9.29
2022-10-13T23:50:57.529Z,9.34
2022-10-13T23:53:59.883Z,9.36
2022-10-13T23:57:01.934Z,9.23
